Poultney, Vermont
Current Conditions -  °F | °C
As of 11:55 AM on Thursday 23 Oct 2014 (Local Time) from KRUT Reporting Station
Overcast Overcast  
Wind Chill: 39°   Ceiling: 400
Heat Index: 43°   Visibility: 2.5mi
Dew Point: 39°   Wind: 7mph
Humidity: 87%   Direction: 320°NW
Pressure: 29.87"   Gusts: NA
Location:  43.52°N, 73.24°W
Report Text: KRUT 231555Z 32006KT 2 1/2SM OVC004 06/04 A2987 RMK AO1
Loading
Personal Weather Stations






























Interactive Weather Map
Tropical Storm Tracking
New forecast layout! Learn more

10-Day Weather Forecast

Advertisements
Track Severe Weather on mobile